createdAt,value
2022-10-13T00:01:52.763Z,40.00
2022-10-13T00:04:22.700Z,39.90
2022-10-13T00:06:53.339Z,39.70
2022-10-13T00:09:28.733Z,39.70
2022-10-13T00:12:00.146Z,39.90
2022-10-13T00:14:30.210Z,39.70
2022-10-13T00:17:00.277Z,39.70
2022-10-13T00:19:31.627Z,39.70
2022-10-13T00:22:01.635Z,39.80
2022-10-13T00:24:31.507Z,39.80
2022-10-13T00:27:01.487Z,39.60
2022-10-13T00:29:31.481Z,40.00
2022-10-13T00:32:01.358Z,41.70
2022-10-13T00:34:31.338Z,41.00
2022-10-13T00:37:01.226Z,41.40
2022-10-13T00:39:31.193Z,41.60
2022-10-13T00:42:01.796Z,41.60
2022-10-13T00:44:59.384Z,41.60
2022-10-13T00:47:32.607Z,41.10
2022-10-13T00:50:03.964Z,41.40
2022-10-13T00:52:33.940Z,41.50
2022-10-13T00:55:04.269Z,40.70
2022-10-13T00:57:34.731Z,41.90
2022-10-13T01:00:05.351Z,39.30
2022-10-13T01:02:37.546Z,37.10
2022-10-13T01:05:08.151Z,37.80
2022-10-13T01:07:40.009Z,39.70
2022-10-13T01:10:10.096Z,38.60
2022-10-13T01:13:18.897Z,38.80
2022-10-13T01:16:13.263Z,38.50
2022-10-13T01:18:52.986Z,38.40
2022-10-13T01:21:32.211Z,38.30
2022-10-13T01:24:10.685Z,38.40
2022-10-13T01:26:49.651Z,38.40
2022-10-13T01:29:34.468Z,38.60
2022-10-13T01:32:26.286Z,39.80
2022-10-13T01:35:08.205Z,39.70
2022-10-13T01:37:53.411Z,39.60
2022-10-13T01:40:27.381Z,39.50
2022-10-13T01:43:18.018Z,40.70
2022-10-13T01:46:09.954Z,41.20
2022-10-13T01:48:40.720Z,41.50
2022-10-13T01:51:13.706Z,43.40
2022-10-13T01:53:43.864Z,41.70
2022-10-13T01:56:13.881Z,41.00
2022-10-13T01:58:44.541Z,41.00
2022-10-13T02:01:35.986Z,40.70
2022-10-13T02:04:25.054Z,40.80
2022-10-13T02:07:22.559Z,40.40
2022-10-13T02:10:05.914Z,40.40
2022-10-13T02:12:38.999Z,40.60
2022-10-13T02:15:10.498Z,40.30
2022-10-13T02:17:43.276Z,40.30
2022-10-13T02:20:13.277Z,39.80
2022-10-13T02:22:45.310Z,40.40
2022-10-13T02:25:15.422Z,40.00
2022-10-13T02:27:45.310Z,40.20
2022-10-13T02:30:23.791Z,39.20
2022-10-13T02:32:53.682Z,39.90
2022-10-13T02:35:23.605Z,40.30
2022-10-13T02:37:53.601Z,40.20
2022-10-13T02:40:23.485Z,39.90
2022-10-13T02:42:53.348Z,40.30
2022-10-13T02:45:23.267Z,39.90
2022-10-13T02:47:56.003Z,40.00
2022-10-13T02:50:25.942Z,40.50
2022-10-13T02:52:56.050Z,40.40
2022-10-13T02:55:26.013Z,40.70
2022-10-13T02:58:08.602Z,40.60
2022-10-13T03:00:40.750Z,40.80
2022-10-13T03:03:11.152Z,41.30
2022-10-13T03:05:41.078Z,41.30
2022-10-13T03:08:11.061Z,41.20
2022-10-13T03:10:42.930Z,40.00
2022-10-13T03:13:12.876Z,40.40
2022-10-13T03:15:42.804Z,40.00
2022-10-13T03:18:12.667Z,40.80
2022-10-13T03:20:42.982Z,40.80
2022-10-13T03:23:13.401Z,41.40
2022-10-13T03:25:43.361Z,40.70
2022-10-13T03:28:13.355Z,40.80
2022-10-13T03:30:47.200Z,41.30
2022-10-13T03:33:17.391Z,41.10
2022-10-13T03:35:47.295Z,41.40
2022-10-13T03:38:17.171Z,40.10
2022-10-13T03:40:47.060Z,40.10
2022-10-13T03:43:16.972Z,40.60
2022-10-13T03:45:46.915Z,40.60
2022-10-13T03:48:16.784Z,40.30
2022-10-13T03:50:46.711Z,39.80
2022-10-13T03:53:16.749Z,39.90
2022-10-13T03:55:52.755Z,39.90
2022-10-13T03:58:23.279Z,39.70
2022-10-13T04:00:56.220Z,39.10
2022-10-13T04:03:26.889Z,39.30
2022-10-13T04:05:56.827Z,39.40
2022-10-13T04:08:26.804Z,39.30
2022-10-13T04:11:03.955Z,39.10
2022-10-13T04:13:34.326Z,39.00
2022-10-13T04:16:15.222Z,39.20
2022-10-13T04:18:45.437Z,38.90
2022-10-13T04:21:16.749Z,38.90
2022-10-13T04:23:47.157Z,38.60
2022-10-13T04:26:23.148Z,38.20
2022-10-13T04:28:53.800Z,38.80
2022-10-13T04:31:24.328Z,38.40
2022-10-13T04:33:55.448Z,38.30
2022-10-13T04:36:25.511Z,38.40
2022-10-13T04:38:56.115Z,38.40
2022-10-13T04:41:26.979Z,39.00
2022-10-13T04:43:56.950Z,38.20
2022-10-13T04:46:28.017Z,38.50
2022-10-13T04:48:59.196Z,38.90
2022-10-13T04:51:34.893Z,37.90
2022-10-13T04:54:06.614Z,38.80
2022-10-13T04:56:36.532Z,38.50
2022-10-13T04:59:06.967Z,38.20
2022-10-13T05:01:37.311Z,38.50
2022-10-13T05:04:11.046Z,38.10
2022-10-13T05:07:05.158Z,37.70
2022-10-13T05:09:32.125Z,38.60
2022-10-13T05:12:02.430Z,39.10
2022-10-13T05:14:33.495Z,39.00
2022-10-13T05:17:03.615Z,39.00
2022-10-13T05:19:33.608Z,39.50
2022-10-13T05:22:03.461Z,39.50
2022-10-13T05:24:37.733Z,39.00
2022-10-13T05:27:14.453Z,38.70
2022-10-13T05:29:44.322Z,38.30
2022-10-13T05:32:14.192Z,38.30
2022-10-13T05:34:44.450Z,39.00
2022-10-13T05:37:14.361Z,39.10
2022-10-13T05:39:48.634Z,38.30
2022-10-13T05:42:19.484Z,38.40
2022-10-13T05:44:49.876Z,38.60
2022-10-13T05:47:19.847Z,38.20
2022-10-13T05:49:49.712Z,38.00
2022-10-13T05:52:19.788Z,38.10
2022-10-13T05:54:54.452Z,37.60
2022-10-13T05:57:27.862Z,38.20
2022-10-13T05:59:58.924Z,38.80
2022-10-13T06:02:32.614Z,39.20
2022-10-13T06:05:02.905Z,39.40
2022-10-13T06:07:33.113Z,40.30
2022-10-13T06:10:03.212Z,39.40
2022-10-13T06:12:33.366Z,39.50
2022-10-13T06:15:03.354Z,39.50
2022-10-13T06:17:33.324Z,39.20
2022-10-13T06:20:03.276Z,39.90
2022-10-13T06:22:33.828Z,40.40
2022-10-13T06:25:04.670Z,40.10
2022-10-13T06:27:34.625Z,39.90
2022-10-13T06:30:04.641Z,39.50
2022-10-13T06:32:34.880Z,40.00
2022-10-13T06:35:05.031Z,40.10
2022-10-13T06:37:35.362Z,39.70
2022-10-13T06:40:06.838Z,39.60
2022-10-13T06:42:37.271Z,39.80
2022-10-13T06:45:13.607Z,39.70
2022-10-13T06:47:43.571Z,39.60
2022-10-13T06:50:13.900Z,39.70
2022-10-13T06:52:45.144Z,39.50
2022-10-13T06:55:15.316Z,39.60
2022-10-13T06:57:45.224Z,39.50
2022-10-13T07:00:15.343Z,39.50
2022-10-13T07:02:46.774Z,39.50
2022-10-13T07:05:17.299Z,39.30
2022-10-13T07:07:47.753Z,39.60
2022-10-13T07:10:17.680Z,39.10
2022-10-13T07:12:48.494Z,39.00
2022-10-13T07:15:18.873Z,39.10
2022-10-13T07:17:55.018Z,39.30
2022-10-13T07:20:27.049Z,39.30
2022-10-13T07:22:57.276Z,38.80
2022-10-13T07:25:28.146Z,38.70
2022-10-13T07:27:59.462Z,38.80
2022-10-13T07:30:29.443Z,38.90
2022-10-13T07:33:01.175Z,39.00
2022-10-13T07:35:31.849Z,38.90
2022-10-13T07:38:02.119Z,38.70
2022-10-13T07:40:32.413Z,38.80
2022-10-13T07:43:03.945Z,38.90
2022-10-13T07:45:34.200Z,38.70
2022-10-13T07:48:04.087Z,39.00
2022-10-13T07:50:34.498Z,38.80
2022-10-13T07:53:05.576Z,38.40
2022-10-13T07:55:36.200Z,32.50
2022-10-13T07:58:06.164Z,29.60
2022-10-13T08:00:37.315Z,26.20
2022-10-13T08:03:08.003Z,24.90
2022-10-13T08:05:41.748Z,24.50
2022-10-13T08:08:12.025Z,24.60
2022-10-13T08:10:42.025Z,23.80
2022-10-13T08:13:12.985Z,23.50
2022-10-13T08:15:44.229Z,24.00
2022-10-13T08:18:15.294Z,23.10
2022-10-13T08:20:46.968Z,24.60
2022-10-13T08:23:17.196Z,24.50
2022-10-13T08:25:53.287Z,25.00
2022-10-13T08:28:25.113Z,25.60
2022-10-13T08:30:59.057Z,26.20
2022-10-13T08:33:29.347Z,26.40
2022-10-13T08:35:59.728Z,27.00
2022-10-13T08:38:29.801Z,27.30
2022-10-13T08:40:59.694Z,27.60
2022-10-13T08:43:29.658Z,27.80
2022-10-13T08:46:02.539Z,28.10
2022-10-13T08:48:33.964Z,28.30
2022-10-13T08:51:05.250Z,28.40
2022-10-13T08:53:41.176Z,28.50
2022-10-13T08:56:12.242Z,28.60
2022-10-13T08:58:45.457Z,28.80
2022-10-13T09:01:17.030Z,28.90
2022-10-13T09:03:59.361Z,28.80
2022-10-13T09:06:42.923Z,29.00
2022-10-13T09:09:16.759Z,29.30
2022-10-13T09:11:49.234Z,29.40
2022-10-13T09:14:26.396Z,29.40
2022-10-13T09:16:58.207Z,29.50
2022-10-13T09:19:35.297Z,29.50
2022-10-13T09:22:17.432Z,29.50
2022-10-13T09:24:47.599Z,29.60
2022-10-13T09:27:18.491Z,29.90
2022-10-13T09:29:48.470Z,33.70
2022-10-13T09:32:24.729Z,34.10
2022-10-13T09:34:56.680Z,34.10
2022-10-13T09:37:27.501Z,34.20
2022-10-13T09:40:23.660Z,34.30
2022-10-13T09:42:54.230Z,33.80
2022-10-13T09:45:24.448Z,34.20
2022-10-13T09:47:58.015Z,34.20
2022-10-13T09:50:33.062Z,34.90
2022-10-13T09:53:41.824Z,34.60
2022-10-13T09:56:45.472Z,35.00
2022-10-13T09:59:23.133Z,34.90
2022-10-13T10:01:53.175Z,34.80
2022-10-13T10:04:25.887Z,34.00
2022-10-13T10:06:55.990Z,40.20
2022-10-13T10:09:43.193Z,39.70
2022-10-13T10:12:27.534Z,37.90
2022-10-13T10:14:57.971Z,37.10
2022-10-13T10:17:49.810Z,38.30
2022-10-13T10:20:47.156Z,37.60
2022-10-13T10:23:23.594Z,38.10
2022-10-13T10:26:00.414Z,38.50
2022-10-13T10:28:51.560Z,38.50
2022-10-13T10:31:42.314Z,39.20
2022-10-13T10:34:15.649Z,38.70
2022-10-13T10:36:48.390Z,38.80
2022-10-13T10:39:50.316Z,38.80
2022-10-13T10:42:35.627Z,39.80
2022-10-13T10:45:06.075Z,38.60
2022-10-13T10:47:39.844Z,39.20
2022-10-13T10:50:14.455Z,40.00
2022-10-13T10:52:50.389Z,40.00
2022-10-13T10:55:36.142Z,39.60
2022-10-13T10:58:06.132Z,39.00
2022-10-13T11:00:43.719Z,39.80
2022-10-13T11:03:44.644Z,38.80
2022-10-13T11:06:14.494Z,39.50
2022-10-13T11:08:49.591Z,40.40
2022-10-13T11:11:28.592Z,40.00
2022-10-13T11:14:12.385Z,40.00
2022-10-13T11:17:07.535Z,40.70
2022-10-13T11:19:41.329Z,40.10
2022-10-13T11:22:16.289Z,40.10
2022-10-13T11:24:51.608Z,40.60
2022-10-13T11:27:41.013Z,41.20
2022-10-13T11:30:43.394Z,40.80
2022-10-13T11:33:35.692Z,40.70
2022-10-13T11:36:42.807Z,41.30
2022-10-13T11:39:28.927Z,40.00
2022-10-13T11:42:11.054Z,41.20
2022-10-13T11:45:10.872Z,41.40
2022-10-13T11:47:55.121Z,41.20
2022-10-13T11:50:47.405Z,41.50
2022-10-13T11:53:50.217Z,41.00
2022-10-13T11:56:24.707Z,41.20
2022-10-13T11:58:54.970Z,41.80
2022-10-13T12:01:24.852Z,41.80
2022-10-13T12:03:54.888Z,41.80
2022-10-13T12:06:33.466Z,42.00
2022-10-13T12:09:06.472Z,42.50
2022-10-13T12:11:38.645Z,42.40
2022-10-13T12:14:19.855Z,43.00
2022-10-13T12:16:59.889Z,43.20
2022-10-13T12:19:31.647Z,43.00
2022-10-13T12:22:02.790Z,43.80
2022-10-13T12:24:32.824Z,44.00
2022-10-13T12:27:04.159Z,43.00
2022-10-13T12:29:37.392Z,44.10
2022-10-13T12:32:25.611Z,43.20
2022-10-13T12:34:55.438Z,43.50
2022-10-13T12:37:30.121Z,43.90
2022-10-13T12:40:00.655Z,44.40
2022-10-13T12:42:34.909Z,44.20
2022-10-13T12:45:05.155Z,43.90
2022-10-13T12:47:50.322Z,44.50
2022-10-13T12:50:28.625Z,43.50
2022-10-13T12:53:11.454Z,45.20
2022-10-13T12:55:53.293Z,44.10
2022-10-13T12:58:33.216Z,45.30
2022-10-13T13:01:09.841Z,44.50
2022-10-13T13:03:40.142Z,45.00
2022-10-13T13:06:21.733Z,45.10
2022-10-13T13:09:09.663Z,45.00
2022-10-13T13:11:40.913Z,45.50
2022-10-13T13:14:39.424Z,45.40
2022-10-13T13:17:17.386Z,45.40
2022-10-13T13:19:53.589Z,45.50
2022-10-13T13:22:24.012Z,46.00
2022-10-13T13:24:54.151Z,45.60
2022-10-13T13:27:34.004Z,46.20
2022-10-13T13:30:04.097Z,45.90
2022-10-13T13:32:34.175Z,45.60
2022-10-13T13:35:04.078Z,46.10
2022-10-13T13:37:38.683Z,46.20
2022-10-13T13:40:09.231Z,46.00
2022-10-13T13:42:39.160Z,46.20
2022-10-13T13:45:09.534Z,45.60
2022-10-13T13:47:39.480Z,46.50
2022-10-13T13:50:20.014Z,46.60
2022-10-13T13:52:59.413Z,46.70
2022-10-13T13:55:30.738Z,47.10
2022-10-13T13:58:00.695Z,46.50
2022-10-13T14:00:30.668Z,46.80
2022-10-13T14:03:00.628Z,47.00
2022-10-13T14:05:30.514Z,46.70
2022-10-13T14:08:00.455Z,46.40
2022-10-13T14:10:30.446Z,47.00
2022-10-13T14:13:00.316Z,47.40
2022-10-13T14:15:30.428Z,47.40
2022-10-13T14:18:00.291Z,47.60
2022-10-13T14:20:30.960Z,47.20
2022-10-13T14:23:04.278Z,47.30
2022-10-13T14:25:35.241Z,47.80
2022-10-13T14:28:06.536Z,47.80
2022-10-13T14:30:37.135Z,48.10
2022-10-13T14:33:07.946Z,48.00
2022-10-13T14:35:38.013Z,48.40
2022-10-13T14:38:09.078Z,49.10
2022-10-13T14:40:43.589Z,48.40
2022-10-13T14:43:13.463Z,48.40
2022-10-13T14:45:43.421Z,49.00
2022-10-13T14:48:13.636Z,48.90
2022-10-13T14:50:43.589Z,48.10
2022-10-13T14:53:16.465Z,48.50
2022-10-13T14:55:46.756Z,48.90
2022-10-13T14:58:16.693Z,48.70
2022-10-13T15:00:46.577Z,48.40
2022-10-13T15:03:16.980Z,49.80
2022-10-13T15:05:46.936Z,48.30
2022-10-13T15:08:20.370Z,49.70
2022-10-13T15:10:50.315Z,50.00
2022-10-13T15:13:20.248Z,49.80
2022-10-13T15:15:50.986Z,49.60
2022-10-13T15:18:22.874Z,50.00
2022-10-13T15:20:55.930Z,49.70
2022-10-13T15:23:26.333Z,49.70
2022-10-13T15:25:58.934Z,49.80
2022-10-13T15:28:30.512Z,50.10
2022-10-13T15:31:00.642Z,50.20
2022-10-13T15:33:30.714Z,50.50
2022-10-13T15:36:01.021Z,50.10
2022-10-13T15:38:31.949Z,50.20
2022-10-13T15:41:06.119Z,50.30
2022-10-13T15:43:36.337Z,50.90
2022-10-13T15:46:10.172Z,50.30
2022-10-13T15:48:40.435Z,50.70
2022-10-13T15:51:17.388Z,50.70
2022-10-13T15:53:48.371Z,50.20
2022-10-13T15:56:18.585Z,51.00
2022-10-13T15:58:48.595Z,50.30
2022-10-13T16:01:18.572Z,51.30
2022-10-13T16:03:48.491Z,50.80
2022-10-13T16:06:23.234Z,51.10
2022-10-13T16:08:53.283Z,51.40
2022-10-13T16:11:23.967Z,51.40
2022-10-13T16:13:54.055Z,51.20
2022-10-13T16:16:24.061Z,51.50
2022-10-13T16:18:54.402Z,51.50
2022-10-13T16:21:26.903Z,51.50
2022-10-13T16:23:59.501Z,51.50
2022-10-13T16:26:29.454Z,51.40
2022-10-13T16:28:59.710Z,51.70
2022-10-13T16:31:30.545Z,51.60
2022-10-13T16:34:00.422Z,52.20
2022-10-13T16:36:30.300Z,51.80
2022-10-13T16:39:00.239Z,52.20
2022-10-13T16:41:30.182Z,51.60
2022-10-13T16:44:00.103Z,51.80
2022-10-13T16:46:30.071Z,52.00
2022-10-13T16:49:00.073Z,52.50
2022-10-13T16:51:30.166Z,51.80
2022-10-13T16:54:04.090Z,52.10
2022-10-13T16:56:34.811Z,52.10
2022-10-13T16:59:07.044Z,52.60
2022-10-13T17:01:37.626Z,52.10
2022-10-13T17:04:07.707Z,53.00
2022-10-13T17:06:40.511Z,52.60
2022-10-13T17:09:10.887Z,52.40
2022-10-13T17:11:44.569Z,52.90
2022-10-13T17:14:14.504Z,52.80
2022-10-13T17:16:45.386Z,52.50
2022-10-13T17:19:15.335Z,53.30
2022-10-13T17:21:46.293Z,52.40
2022-10-13T17:24:17.488Z,52.30
2022-10-13T17:26:47.410Z,52.60
2022-10-13T17:29:17.340Z,53.50
2022-10-13T17:31:48.157Z,52.90
2022-10-13T17:34:21.666Z,53.20
2022-10-13T17:36:54.033Z,53.10
2022-10-13T17:39:23.899Z,52.70
2022-10-13T17:41:54.636Z,53.30
2022-10-13T17:44:24.606Z,53.50
2022-10-13T17:46:54.511Z,53.30
2022-10-13T17:49:24.500Z,53.70
2022-10-13T17:51:54.838Z,53.30
2022-10-13T17:54:26.079Z,53.00
2022-10-13T17:56:58.106Z,53.30
2022-10-13T17:59:28.163Z,53.40
2022-10-13T18:01:58.186Z,53.90
2022-10-13T18:04:30.172Z,52.70
2022-10-13T18:07:00.123Z,53.60
2022-10-13T18:09:30.083Z,53.50
2022-10-13T18:11:59.952Z,53.70
2022-10-13T18:14:29.825Z,53.70
2022-10-13T18:16:59.687Z,53.50
2022-10-13T18:19:29.665Z,53.40
2022-10-13T18:21:59.546Z,54.20
2022-10-13T18:24:29.486Z,53.30
2022-10-13T18:26:59.500Z,53.90
2022-10-13T18:29:31.891Z,53.50
2022-10-13T18:32:01.942Z,53.40
2022-10-13T18:34:32.516Z,54.40
2022-10-13T18:37:02.403Z,53.90
2022-10-13T18:39:33.135Z,54.70
2022-10-13T18:42:04.164Z,54.70
2022-10-13T18:44:37.482Z,54.50
2022-10-13T18:47:08.175Z,54.20
2022-10-13T18:49:39.006Z,54.40
2022-10-13T18:52:09.120Z,54.20
2022-10-13T18:54:42.226Z,54.30
2022-10-13T18:57:12.466Z,54.30
2022-10-13T18:59:43.381Z,54.10
2022-10-13T19:02:15.834Z,54.30
2022-10-13T19:04:45.942Z,54.50
2022-10-13T19:07:16.051Z,54.30
2022-10-13T19:09:46.152Z,54.70
2022-10-13T19:12:16.317Z,54.50
2022-10-13T19:14:46.922Z,54.40
2022-10-13T19:17:16.943Z,55.00
2022-10-13T19:19:47.526Z,54.50
2022-10-13T19:22:17.801Z,54.70
2022-10-13T19:24:49.233Z,54.30
2022-10-13T19:27:19.465Z,55.30
2022-10-13T19:29:52.731Z,54.90
2022-10-13T19:32:22.619Z,54.90
2022-10-13T19:34:52.504Z,55.10
2022-10-13T19:37:22.908Z,54.80
2022-10-13T19:39:53.143Z,55.30
2022-10-13T19:42:23.095Z,54.30
2022-10-13T19:44:53.131Z,55.40
2022-10-13T19:47:23.349Z,54.80
2022-10-13T19:49:54.429Z,54.80
2022-10-13T19:52:25.984Z,55.50
2022-10-13T19:54:56.017Z,55.70
2022-10-13T19:57:25.930Z,55.70
2022-10-13T19:59:55.858Z,56.10
2022-10-13T20:02:25.901Z,55.70
2022-10-13T20:04:56.808Z,55.80
2022-10-13T20:07:26.813Z,56.10
2022-10-13T20:09:57.001Z,55.90
2022-10-13T20:12:27.320Z,55.60
2022-10-13T20:14:57.248Z,55.40
2022-10-13T20:17:27.198Z,55.80
2022-10-13T20:19:57.035Z,55.70
2022-10-13T20:22:27.032Z,55.80
2022-10-13T20:24:57.600Z,54.90
2022-10-13T20:27:27.600Z,55.70
2022-10-13T20:29:57.534Z,56.20
2022-10-13T20:32:29.072Z,55.40
2022-10-13T20:35:00.023Z,55.70
2022-10-13T20:37:33.015Z,56.00
2022-10-13T20:40:03.008Z,55.70
2022-10-13T20:42:33.947Z,55.40
2022-10-13T20:45:04.193Z,56.00
2022-10-13T20:47:35.707Z,55.30
2022-10-13T20:50:09.533Z,55.70
2022-10-13T20:52:39.818Z,55.70
2022-10-13T20:55:10.099Z,56.20
2022-10-13T20:57:40.078Z,56.00
2022-10-13T21:00:11.397Z,56.00
2022-10-13T21:02:41.290Z,56.10
2022-10-13T21:05:11.278Z,56.90
2022-10-13T21:07:43.640Z,56.00
2022-10-13T21:10:13.562Z,56.20
2022-10-13T21:12:43.433Z,55.90
2022-10-13T21:15:13.445Z,55.80
2022-10-13T21:17:43.420Z,55.90
2022-10-13T21:20:13.639Z,55.70
2022-10-13T21:22:44.174Z,56.10
2022-10-13T21:25:14.044Z,55.30
2022-10-13T21:27:44.062Z,56.70
2022-10-13T21:30:14.763Z,56.50
2022-10-13T21:32:45.061Z,56.70
2022-10-13T21:35:15.441Z,56.40
2022-10-13T21:37:45.356Z,56.30
2022-10-13T21:40:16.011Z,56.00
2022-10-13T21:42:46.150Z,56.30
2022-10-13T21:45:16.071Z,56.30
2022-10-13T21:47:46.486Z,56.20
2022-10-13T21:50:16.927Z,56.90
2022-10-13T21:52:47.711Z,56.50
2022-10-13T21:55:17.763Z,56.60
2022-10-13T21:57:47.693Z,56.30
2022-10-13T22:00:18.240Z,56.90
2022-10-13T22:02:48.676Z,56.60
2022-10-13T22:05:23.100Z,57.00
2022-10-13T22:07:55.293Z,56.80
2022-10-13T22:10:25.661Z,56.90
2022-10-13T22:12:59.077Z,56.80
2022-10-13T22:15:29.285Z,57.70
2022-10-13T22:17:59.943Z,57.20
2022-10-13T22:20:32.201Z,57.30
2022-10-13T22:23:02.498Z,56.60
2022-10-13T22:25:32.415Z,57.30
2022-10-13T22:28:02.276Z,57.30
2022-10-13T22:30:32.304Z,57.30
2022-10-13T22:33:03.020Z,57.60
2022-10-13T22:35:36.228Z,56.10
2022-10-13T22:38:05.698Z,56.60
2022-10-13T22:40:35.951Z,56.60
2022-10-13T22:43:05.791Z,57.10
2022-10-13T22:45:35.823Z,56.90
2022-10-13T22:48:06.410Z,57.30
2022-10-13T22:50:36.829Z,57.00
2022-10-13T22:53:07.212Z,57.50
2022-10-13T22:55:39.866Z,56.90
2022-10-13T22:58:09.859Z,56.40
2022-10-13T23:00:40.259Z,57.10
2022-10-13T23:03:12.455Z,57.20
2022-10-13T23:05:48.984Z,57.10
2022-10-13T23:08:19.571Z,57.40
2022-10-13T23:10:49.418Z,58.20
2022-10-13T23:13:19.366Z,57.20
2022-10-13T23:15:51.625Z,57.30
2022-10-13T23:18:21.586Z,57.40
2022-10-13T23:20:56.538Z,57.00
2022-10-13T23:23:28.715Z,57.60
2022-10-13T23:26:02.343Z,57.20
2022-10-13T23:28:33.199Z,57.60
2022-10-13T23:31:08.010Z,58.00
2022-10-13T23:33:38.063Z,57.60
2022-10-13T23:36:08.630Z,58.00
2022-10-13T23:38:38.465Z,57.10
2022-10-13T23:41:09.726Z,56.60
2022-10-13T23:43:41.477Z,57.30
2022-10-13T23:46:11.862Z,56.70
2022-10-13T23:48:41.956Z,57.60
2022-10-13T23:51:22.853Z,56.40
2022-10-13T23:53:53.134Z,57.20
2022-10-13T23:56:23.378Z,57.20
2022-10-13T23:58:53.247Z,57.10
